createdAt,value
2019-03-24T00:00:41.351Z,50.90
2019-03-24T00:03:14.911Z,50.67
2019-03-24T00:05:48.386Z,50.30
2019-03-24T00:08:21.988Z,49.77
2019-03-24T00:10:55.626Z,49.60
2019-03-24T00:13:30.069Z,49.40
2019-03-24T00:16:03.850Z,49.30
2019-03-24T00:18:37.400Z,49.17
2019-03-24T00:21:11.015Z,48.93
2019-03-24T00:23:44.444Z,49.83
2019-03-24T00:26:18.859Z,48.30
2019-03-24T00:28:52.621Z,47.87
2019-03-24T00:31:26.422Z,47.40
2019-03-24T00:33:59.854Z,48.13
2019-03-24T00:36:33.359Z,49.07
2019-03-24T00:39:07.225Z,47.17
2019-03-24T00:41:40.816Z,47.27
2019-03-24T00:44:14.851Z,46.90
2019-03-24T00:46:49.337Z,47.43
2019-03-24T00:49:22.937Z,47.90
2019-03-24T00:51:56.292Z,45.47
2019-03-24T00:54:29.784Z,49.57
2019-03-24T00:57:03.362Z,50.43
2019-03-24T00:59:37.047Z,50.00
2019-03-24T01:02:10.614Z,48.80
2019-03-24T01:04:44.175Z,46.30
2019-03-24T01:07:17.883Z,49.93
2019-03-24T01:09:51.341Z,48.17
2019-03-24T01:12:24.882Z,46.60
2019-03-24T01:14:58.391Z,43.43
2019-03-24T01:17:32.291Z,34.63
2019-03-24T01:20:06.272Z,34.27
2019-03-24T01:22:39.754Z,30.07
2019-03-24T01:25:13.617Z,25.50
2019-03-24T01:27:47.149Z,23.40
2019-03-24T01:30:20.847Z,22.97
2019-03-24T01:32:54.190Z,23.03
2019-03-24T01:35:28.010Z,23.23
2019-03-24T01:38:01.491Z,22.53
2019-03-24T01:40:35.025Z,22.23
2019-03-24T01:43:09.530Z,21.90
2019-03-24T01:45:43.033Z,21.00
2019-03-24T01:48:16.472Z,21.77
2019-03-24T01:50:49.976Z,20.43
2019-03-24T01:53:23.654Z,20.03
2019-03-24T01:55:57.270Z,19.73
2019-03-24T01:58:30.935Z,18.63
2019-03-24T02:01:04.515Z,19.63
2019-03-24T02:03:38.221Z,19.13
2019-03-24T02:06:11.612Z,19.53
2019-03-24T02:08:44.976Z,19.27
2019-03-24T02:11:18.585Z,19.17
2019-03-24T02:13:51.973Z,18.67
2019-03-24T02:16:25.608Z,17.50
2019-03-24T02:18:59.293Z,18.20
2019-03-24T02:21:33.846Z,17.20
2019-03-24T02:24:07.387Z,18.23
2019-03-24T02:26:41.132Z,16.60
2019-03-24T02:29:14.783Z,16.60
2019-03-24T02:31:48.629Z,16.67
2019-03-24T02:34:22.519Z,16.87
2019-03-24T02:36:55.990Z,17.13
2019-03-24T02:39:29.378Z,17.77
2019-03-24T02:42:02.891Z,17.57
2019-03-24T02:44:36.504Z,16.93
2019-03-24T02:47:10.005Z,18.70
2019-03-24T02:49:43.527Z,16.93
2019-03-24T02:52:17.133Z,17.00
2019-03-24T02:54:50.700Z,16.10
2019-03-24T02:57:25.343Z,17.37
2019-03-24T02:59:58.825Z,16.40
2019-03-24T03:02:32.847Z,16.83
2019-03-24T03:05:07.240Z,16.60
2019-03-24T03:07:40.758Z,16.20
2019-03-24T03:10:14.797Z,16.20
2019-03-24T03:12:48.416Z,16.03
2019-03-24T03:15:22.017Z,16.57
2019-03-24T03:17:55.524Z,17.70
2019-03-24T03:20:29.032Z,15.67
2019-03-24T03:23:02.815Z,16.60
2019-03-24T03:25:36.454Z,17.73
2019-03-24T03:28:09.983Z,16.60
2019-03-24T03:30:43.690Z,17.87
2019-03-24T03:33:17.320Z,17.80
2019-03-24T03:35:50.873Z,17.87
2019-03-24T03:38:24.574Z,17.07
2019-03-24T03:40:58.103Z,17.67
2019-03-24T03:43:31.635Z,19.17
2019-03-24T03:46:05.261Z,18.10
2019-03-24T03:48:38.974Z,17.77
2019-03-24T03:51:12.588Z,18.20
2019-03-24T03:53:46.140Z,18.40
2019-03-24T03:56:19.730Z,18.17
2019-03-24T03:58:53.379Z,17.67
2019-03-24T04:01:27.090Z,17.13
2019-03-24T04:04:00.517Z,18.97
2019-03-24T04:06:33.928Z,18.83
2019-03-24T04:09:07.778Z,18.03
2019-03-24T04:11:41.146Z,18.13
2019-03-24T04:14:14.936Z,18.20
2019-03-24T04:16:48.519Z,18.43
2019-03-24T04:19:22.121Z,18.73
2019-03-24T04:21:55.949Z,18.63
2019-03-24T04:24:29.359Z,18.70
2019-03-24T04:27:02.941Z,19.00
2019-03-24T04:29:36.606Z,18.87
2019-03-24T04:32:21.673Z,19.40
2019-03-24T04:34:55.494Z,18.07
2019-03-24T04:37:28.963Z,19.20
2019-03-24T04:40:02.720Z,19.20
2019-03-24T04:42:36.408Z,18.47
2019-03-24T04:45:10.003Z,18.93
2019-03-24T04:47:43.545Z,19.57
2019-03-24T04:50:17.066Z,19.40
2019-03-24T04:52:50.740Z,19.87
2019-03-24T04:55:24.233Z,18.43
2019-03-24T04:57:58.737Z,19.33
2019-03-24T05:00:37.296Z,19.43
2019-03-24T05:03:10.960Z,19.97
2019-03-24T05:05:44.869Z,19.77
2019-03-24T05:08:18.894Z,19.37
2019-03-24T05:10:52.493Z,20.23
2019-03-24T05:13:26.023Z,20.83
2019-03-24T05:15:59.660Z,19.93
2019-03-24T05:18:33.338Z,20.33
2019-03-24T05:21:06.942Z,22.10
2019-03-24T05:23:40.336Z,22.00
2019-03-24T05:26:14.710Z,22.17
2019-03-24T05:28:48.095Z,22.20
2019-03-24T05:31:21.746Z,22.43
2019-03-24T05:33:55.395Z,23.13
2019-03-24T05:36:28.966Z,21.93
2019-03-24T05:39:03.479Z,22.53
2019-03-24T05:41:37.040Z,23.80
2019-03-24T05:44:10.415Z,24.67
2019-03-24T05:46:43.920Z,24.77
2019-03-24T05:49:17.374Z,25.67
2019-03-24T05:51:51.227Z,24.87
2019-03-24T05:54:24.622Z,23.37
2019-03-24T05:56:58.278Z,26.07
2019-03-24T05:59:32.000Z,25.33
2019-03-24T06:02:05.599Z,24.47
2019-03-24T06:04:39.171Z,23.60
2019-03-24T06:07:12.755Z,25.13
2019-03-24T06:09:46.281Z,27.47
2019-03-24T06:12:19.652Z,26.27
2019-03-24T06:14:53.176Z,25.70
2019-03-24T06:17:26.646Z,27.30
2019-03-24T06:20:00.325Z,27.70
2019-03-24T06:22:34.756Z,26.60
2019-03-24T06:25:08.777Z,27.07
2019-03-24T06:27:42.247Z,27.60
2019-03-24T06:30:15.799Z,26.20
2019-03-24T06:32:49.319Z,27.07
2019-03-24T06:35:23.021Z,27.90
2019-03-24T06:37:56.691Z,28.57
2019-03-24T06:40:30.381Z,26.77
2019-03-24T06:43:03.829Z,27.60
2019-03-24T06:45:37.426Z,26.63
2019-03-24T06:48:10.986Z,26.73
2019-03-24T06:50:44.548Z,27.53
2019-03-24T06:53:18.177Z,28.80
2019-03-24T06:55:51.766Z,27.33
2019-03-24T06:58:25.382Z,27.57
2019-03-24T07:00:59.431Z,28.00
2019-03-24T07:03:33.462Z,28.07
2019-03-24T07:06:07.161Z,29.27
2019-03-24T07:08:40.697Z,26.80
2019-03-24T07:11:14.435Z,26.30
2019-03-24T07:13:48.036Z,26.97
2019-03-24T07:16:21.717Z,28.47
2019-03-24T07:18:55.141Z,28.17
2019-03-24T07:21:28.611Z,26.20
2019-03-24T07:24:02.028Z,28.27
2019-03-24T07:26:35.621Z,27.40
2019-03-24T07:29:09.216Z,27.57
2019-03-24T07:31:42.740Z,25.77
2019-03-24T07:34:16.368Z,26.63
2019-03-24T07:36:49.847Z,25.97
2019-03-24T07:39:23.737Z,26.53
2019-03-24T07:41:57.248Z,27.00
2019-03-24T07:44:30.808Z,26.00
2019-03-24T07:47:11.328Z,27.90
2019-03-24T07:49:44.857Z,26.17
2019-03-24T07:52:18.274Z,26.30
2019-03-24T07:54:52.917Z,25.70
2019-03-24T07:57:26.734Z,25.23
2019-03-24T08:00:00.307Z,22.93
2019-03-24T08:02:33.938Z,23.20
2019-03-24T08:05:07.483Z,23.67
2019-03-24T08:07:41.201Z,24.10
2019-03-24T08:10:14.727Z,22.77
2019-03-24T08:12:48.328Z,25.57
2019-03-24T08:15:21.923Z,24.70
2019-03-24T08:17:55.526Z,24.77
2019-03-24T08:20:29.163Z,25.63
2019-03-24T08:23:02.663Z,25.80
2019-03-24T08:25:36.167Z,26.07
2019-03-24T08:28:17.558Z,26.30
2019-03-24T08:30:51.302Z,26.17
2019-03-24T08:33:24.993Z,25.73
2019-03-24T08:35:58.530Z,26.23
2019-03-24T08:38:32.223Z,29.53
2019-03-24T08:41:05.869Z,29.03
2019-03-24T08:43:39.414Z,28.07
2019-03-24T08:46:12.835Z,25.60
2019-03-24T08:48:46.272Z,28.20
2019-03-24T08:51:19.737Z,25.33
2019-03-24T08:53:53.375Z,26.33
2019-03-24T08:56:26.888Z,27.73
2019-03-24T08:59:00.670Z,28.27
2019-03-24T09:01:35.057Z,29.27
2019-03-24T09:04:08.447Z,28.00
2019-03-24T09:06:41.944Z,28.47
2019-03-24T09:09:15.469Z,29.67
2019-03-24T09:11:49.192Z,28.20
2019-03-24T09:14:22.698Z,28.87
2019-03-24T09:16:56.564Z,29.17
2019-03-24T09:19:30.238Z,29.43
2019-03-24T09:22:03.803Z,29.97
2019-03-24T09:24:37.385Z,30.57
2019-03-24T09:27:10.900Z,28.97
2019-03-24T09:29:44.532Z,32.37
2019-03-24T09:32:18.117Z,30.73
2019-03-24T09:34:51.623Z,28.60
2019-03-24T09:37:25.274Z,29.70
2019-03-24T09:39:58.778Z,30.10
2019-03-24T09:42:32.489Z,30.33
2019-03-24T09:45:06.844Z,30.27
2019-03-24T09:47:41.694Z,29.57
2019-03-24T09:50:15.184Z,32.37
2019-03-24T09:52:48.976Z,32.55
2019-03-24T09:55:22.593Z,32.73
2019-03-24T09:57:57.605Z,32.00
2019-03-24T10:00:31.013Z,35.17
2019-03-24T10:03:04.449Z,33.38
2019-03-24T10:05:38.429Z,32.30
2019-03-24T10:08:11.999Z,34.95
2019-03-24T10:10:45.624Z,36.80
2019-03-24T10:13:19.178Z,36.13
2019-03-24T10:15:53.800Z,34.57
2019-03-24T10:18:27.279Z,33.43
2019-03-24T10:21:01.028Z,32.05
2019-03-24T10:23:34.609Z,28.67
2019-03-24T10:26:08.224Z,29.53
2019-03-24T10:28:42.749Z,28.85
2019-03-24T10:31:16.811Z,29.32
2019-03-24T10:33:50.414Z,27.93
2019-03-24T10:36:23.970Z,27.23
2019-03-24T10:38:57.744Z,26.27
2019-03-24T10:41:31.246Z,27.93
2019-03-24T10:44:05.016Z,30.27
2019-03-24T10:46:38.846Z,28.65
2019-03-24T10:49:12.459Z,29.02
2019-03-24T10:51:46.876Z,25.68
2019-03-24T10:54:20.654Z,26.87
2019-03-24T10:56:54.408Z,24.35
2019-03-24T10:59:27.959Z,24.75
2019-03-24T11:02:01.501Z,21.40
2019-03-24T11:04:34.921Z,21.40
2019-03-24T11:07:08.856Z,19.48
2019-03-24T11:09:42.354Z,20.10
2019-03-24T11:12:15.957Z,20.23
2019-03-24T11:14:49.716Z,18.67
2019-03-24T11:17:23.442Z,21.10
2019-03-24T11:19:57.187Z,19.07
2019-03-24T11:22:30.533Z,17.07
2019-03-24T11:25:04.926Z,15.43
2019-03-24T11:27:38.604Z,15.05
2019-03-24T11:30:12.974Z,13.38
2019-03-24T11:32:46.463Z,13.95
2019-03-24T11:35:19.872Z,13.62
2019-03-24T11:37:53.413Z,14.38
2019-03-24T11:40:27.077Z,12.28
2019-03-24T11:43:00.535Z,11.10
2019-03-24T11:45:34.480Z,10.63
2019-03-24T11:48:07.986Z,10.18
2019-03-24T11:50:41.910Z,11.20
2019-03-24T11:53:16.811Z,10.00
2019-03-24T11:55:50.319Z,10.40
2019-03-24T11:58:23.739Z,9.40
2019-03-24T12:00:57.339Z,9.55
2019-03-24T12:03:30.886Z,9.63
2019-03-24T12:06:14.088Z,8.95
2019-03-24T12:08:40.347Z,9.75
2019-03-24T12:11:13.837Z,7.97
2019-03-24T12:13:47.251Z,8.20
2019-03-24T12:16:20.914Z,7.90
2019-03-24T12:18:54.349Z,8.00
2019-03-24T12:21:28.381Z,8.78
2019-03-24T12:24:01.971Z,8.75
2019-03-24T12:26:35.558Z,7.83
2019-03-24T12:29:09.951Z,8.10
2019-03-24T12:31:43.646Z,8.83
2019-03-24T12:34:17.218Z,8.10
2019-03-24T12:36:50.817Z,14.65
2019-03-24T12:39:24.402Z,7.75
2019-03-24T12:41:57.927Z,7.67
2019-03-24T12:44:31.316Z,7.58
2019-03-24T12:47:05.129Z,8.43
2019-03-24T12:49:39.090Z,11.05
2019-03-24T12:52:13.178Z,11.48
2019-03-24T12:54:47.075Z,10.35
2019-03-24T12:57:20.772Z,14.43
2019-03-24T12:59:54.346Z,12.25
2019-03-24T13:02:28.948Z,11.70
2019-03-24T13:05:02.567Z,12.93
2019-03-24T13:07:36.271Z,12.45
2019-03-24T13:10:09.778Z,11.57
2019-03-24T13:12:43.338Z,10.18
2019-03-24T13:15:16.977Z,9.28
2019-03-24T13:17:50.547Z,9.28
2019-03-24T13:20:37.864Z,22.67
2019-03-24T13:22:59.742Z,8.63
2019-03-24T13:25:33.302Z,10.60
2019-03-24T13:28:06.929Z,26.10
2019-03-24T13:30:40.818Z,14.53
2019-03-24T13:33:15.286Z,11.25
2019-03-24T13:35:54.161Z,20.15
2019-03-24T13:38:27.788Z,7.75
2019-03-24T13:41:01.322Z,6.55
2019-03-24T13:43:35.092Z,6.87
2019-03-24T13:46:08.722Z,5.78
2019-03-24T13:48:42.581Z,4.28
2019-03-24T13:51:16.377Z,3.85
2019-03-24T13:53:49.921Z,4.20
2019-03-24T13:56:23.623Z,3.50
2019-03-24T13:58:57.146Z,3.45
2019-03-24T14:01:30.972Z,3.40
2019-03-24T14:04:04.997Z,3.87
2019-03-24T14:06:38.559Z,4.95
2019-03-24T14:09:12.973Z,5.05
2019-03-24T14:11:46.546Z,4.70
2019-03-24T14:14:20.284Z,5.25
2019-03-24T14:16:53.832Z,6.28
2019-03-24T14:19:27.524Z,4.90
2019-03-24T14:22:01.093Z,5.17
2019-03-24T14:24:34.676Z,4.53
2019-03-24T14:27:08.295Z,4.55
2019-03-24T14:29:41.791Z,4.10
2019-03-24T14:32:15.393Z,5.12
2019-03-24T14:34:49.108Z,4.20
2019-03-24T14:37:22.702Z,3.85
2019-03-24T14:39:56.213Z,4.10
2019-03-24T14:42:29.994Z,3.85
2019-03-24T14:45:04.184Z,3.85
2019-03-24T14:47:37.972Z,3.95
2019-03-24T14:50:11.564Z,4.45
2019-03-24T14:52:45.195Z,4.50
2019-03-24T14:55:18.908Z,4.15
2019-03-24T14:57:52.372Z,4.12
2019-03-24T15:00:45.302Z,3.95
2019-03-24T15:03:19.884Z,3.85
2019-03-24T15:05:53.549Z,3.45
2019-03-24T15:08:27.334Z,3.67
2019-03-24T15:11:01.343Z,3.87
2019-03-24T15:13:34.762Z,3.27
2019-03-24T15:16:08.448Z,3.70
2019-03-24T15:18:42.029Z,3.50
2019-03-24T15:21:15.463Z,3.27
2019-03-24T15:23:49.048Z,3.65
2019-03-24T15:26:22.603Z,3.62
2019-03-24T15:28:56.267Z,3.58
2019-03-24T15:31:30.207Z,3.37
2019-03-24T15:34:04.011Z,3.12
2019-03-24T15:36:37.722Z,2.87
2019-03-24T15:39:11.519Z,5.55
2019-03-24T15:41:45.090Z,2.95
2019-03-24T15:44:18.728Z,3.27
2019-03-24T15:46:52.543Z,3.22
2019-03-24T15:49:26.092Z,2.95
2019-03-24T15:51:59.660Z,3.20
2019-03-24T15:54:33.353Z,5.12
2019-03-24T15:57:06.939Z,3.15
2019-03-24T15:59:41.446Z,2.85
2019-03-24T16:02:15.179Z,5.53
2019-03-24T16:04:48.660Z,2.77
2019-03-24T16:07:22.385Z,3.22
2019-03-24T16:09:55.867Z,3.08
2019-03-24T16:12:29.768Z,2.90
2019-03-24T16:15:03.746Z,3.58
2019-03-24T16:17:37.198Z,5.22
2019-03-24T16:20:10.879Z,2.67
2019-03-24T16:22:44.344Z,2.42
2019-03-24T16:25:18.226Z,2.60
2019-03-24T16:27:51.669Z,24.20
2019-03-24T16:30:25.264Z,8.35
2019-03-24T16:32:58.851Z,2.70
2019-03-24T16:35:32.725Z,2.30
2019-03-24T16:38:06.094Z,2.50
2019-03-24T16:40:41.439Z,4.75
2019-03-24T16:43:14.995Z,2.87
2019-03-24T16:45:48.541Z,2.87
2019-03-24T16:48:22.023Z,2.72
2019-03-24T16:50:55.597Z,3.05
2019-03-24T16:53:29.359Z,2.65
2019-03-24T16:56:02.861Z,2.25
2019-03-24T16:58:36.730Z,2.20
2019-03-24T17:01:11.788Z,2.98
2019-03-24T17:03:45.382Z,2.50
2019-03-24T17:06:19.070Z,2.40
2019-03-24T17:08:52.600Z,2.33
2019-03-24T17:11:26.344Z,2.40
2019-03-24T17:14:00.406Z,2.30
2019-03-24T17:16:34.115Z,3.20
2019-03-24T17:19:07.794Z,2.85
2019-03-24T17:21:49.590Z,2.52
2019-03-24T17:24:16.855Z,2.83
2019-03-24T17:26:50.470Z,2.50
2019-03-24T17:29:23.905Z,2.85
2019-03-24T17:31:57.609Z,2.20
2019-03-24T17:34:31.239Z,2.33
2019-03-24T17:37:04.987Z,2.57
2019-03-24T17:39:38.689Z,2.63
2019-03-24T17:42:12.291Z,2.10
2019-03-24T17:44:45.743Z,2.13
2019-03-24T17:47:19.367Z,2.43
2019-03-24T17:49:52.851Z,4.30
2019-03-24T17:52:26.565Z,15.50
2019-03-24T17:55:00.010Z,3.00
2019-03-24T17:57:33.738Z,3.07
2019-03-24T18:00:09.390Z,2.40
2019-03-24T18:02:43.139Z,2.47
2019-03-24T18:05:16.625Z,2.40
2019-03-24T18:07:50.269Z,2.47
2019-03-24T18:10:23.990Z,2.50
2019-03-24T18:12:58.096Z,2.47
2019-03-24T18:15:31.715Z,3.63
2019-03-24T18:18:05.349Z,4.57
2019-03-24T18:20:39.220Z,5.27
2019-03-24T18:23:12.822Z,5.43
2019-03-24T18:25:46.302Z,4.57
2019-03-24T18:28:20.008Z,3.63
2019-03-24T18:30:53.560Z,3.60
2019-03-24T18:33:27.077Z,3.60
2019-03-24T18:36:00.632Z,3.40
2019-03-24T18:38:34.111Z,3.83
2019-03-24T18:41:07.728Z,4.03
2019-03-24T18:43:41.267Z,3.37
2019-03-24T18:46:14.822Z,3.37
2019-03-24T18:48:48.356Z,3.80
2019-03-24T18:51:21.825Z,3.17
2019-03-24T18:53:55.502Z,4.77
2019-03-24T18:56:29.257Z,3.73
2019-03-24T18:59:02.867Z,3.20
2019-03-24T19:01:36.482Z,3.23
2019-03-24T19:04:10.021Z,3.00
2019-03-24T19:06:43.689Z,3.10
2019-03-24T19:09:18.250Z,3.13
2019-03-24T19:11:51.975Z,3.57
2019-03-24T19:14:25.563Z,6.20
2019-03-24T19:16:59.313Z,6.03
2019-03-24T19:19:33.036Z,5.50
2019-03-24T19:22:06.469Z,4.30
2019-03-24T19:24:40.022Z,4.80
2019-03-24T19:27:13.756Z,4.60
2019-03-24T19:29:47.401Z,3.97
2019-03-24T19:32:21.518Z,4.37
2019-03-24T19:34:55.071Z,4.57
2019-03-24T19:37:29.425Z,4.83
2019-03-24T19:40:03.543Z,5.57
2019-03-24T19:42:37.390Z,4.47
2019-03-24T19:45:11.328Z,4.83
2019-03-24T19:47:45.798Z,4.73
2019-03-24T19:50:19.496Z,4.77
2019-03-24T19:52:54.206Z,3.90
2019-03-24T19:55:27.703Z,5.33
2019-03-24T19:58:01.228Z,3.63
2019-03-24T20:00:34.769Z,4.17
2019-03-24T20:03:08.322Z,5.33
2019-03-24T20:05:41.962Z,4.27
2019-03-24T20:08:15.537Z,4.40
2019-03-24T20:10:49.188Z,4.20
2019-03-24T20:13:22.731Z,3.87
2019-03-24T20:15:56.396Z,4.40
2019-03-24T20:18:29.905Z,3.87
2019-03-24T20:21:03.345Z,4.53
2019-03-24T20:23:36.852Z,3.80
2019-03-24T20:26:10.397Z,4.17
2019-03-24T20:28:43.994Z,4.13
2019-03-24T20:31:17.563Z,5.30
2019-03-24T20:33:51.221Z,4.90
2019-03-24T20:36:24.783Z,4.43
2019-03-24T20:38:58.443Z,4.43
2019-03-24T20:41:31.833Z,4.47
2019-03-24T20:44:05.327Z,5.30
2019-03-24T20:46:38.819Z,6.57
2019-03-24T20:49:12.454Z,5.83
2019-03-24T20:51:49.119Z,5.97
2019-03-24T20:54:23.240Z,6.67
2019-03-24T20:56:56.754Z,5.97
2019-03-24T20:59:30.206Z,6.23
2019-03-24T21:02:03.720Z,5.23
2019-03-24T21:04:37.304Z,6.27
2019-03-24T21:07:10.758Z,6.93
2019-03-24T21:09:46.517Z,5.97
2019-03-24T21:12:20.009Z,6.47
2019-03-24T21:14:53.508Z,5.97
2019-03-24T21:17:27.087Z,6.27
2019-03-24T21:20:00.537Z,5.73
2019-03-24T21:22:34.277Z,6.43
2019-03-24T21:25:08.637Z,6.27
2019-03-24T21:27:42.104Z,5.20
2019-03-24T21:30:17.809Z,5.23
2019-03-24T21:32:51.649Z,6.60
2019-03-24T21:35:25.621Z,4.70
2019-03-24T21:37:59.165Z,4.93
2019-03-24T21:40:32.790Z,4.53
2019-03-24T21:43:07.133Z,4.87
2019-03-24T21:45:40.665Z,4.90
2019-03-24T21:48:14.553Z,5.23
2019-03-24T21:50:48.206Z,5.43
2019-03-24T21:53:21.730Z,11.10
2019-03-24T21:55:55.428Z,11.67
2019-03-24T21:58:28.973Z,5.03
2019-03-24T22:01:02.479Z,5.33
2019-03-24T22:03:37.018Z,5.63
2019-03-24T22:06:10.598Z,4.50
2019-03-24T22:08:44.294Z,5.80
2019-03-24T22:11:17.993Z,4.90
2019-03-24T22:13:51.595Z,10.53
2019-03-24T22:16:25.144Z,4.47
2019-03-24T22:18:58.725Z,4.33
2019-03-24T22:21:32.534Z,4.77
2019-03-24T22:24:06.079Z,4.97
2019-03-24T22:26:39.779Z,4.50
2019-03-24T22:29:13.235Z,4.93
2019-03-24T22:31:46.922Z,4.87
2019-03-24T22:34:20.338Z,5.00
2019-03-24T22:36:53.780Z,5.23
2019-03-24T22:39:27.289Z,5.10
2019-03-24T22:42:00.949Z,4.83
2019-03-24T22:44:34.518Z,5.83
2019-03-24T22:47:08.003Z,6.30
2019-03-24T22:49:41.588Z,7.13
2019-03-24T22:52:15.314Z,6.00
2019-03-24T22:54:48.917Z,6.50
2019-03-24T22:57:22.470Z,6.17
2019-03-24T22:59:56.103Z,8.00
2019-03-24T23:02:29.708Z,8.07
2019-03-24T23:05:03.276Z,10.83
2019-03-24T23:07:36.924Z,9.00
2019-03-24T23:10:10.556Z,9.27
2019-03-24T23:12:44.034Z,7.90
2019-03-24T23:15:17.819Z,8.23
2019-03-24T23:17:51.194Z,7.17
2019-03-24T23:20:25.193Z,7.27
2019-03-24T23:22:58.619Z,9.83
2019-03-24T23:25:33.164Z,12.40
2019-03-24T23:28:06.660Z,13.63
2019-03-24T23:30:40.229Z,7.57
2019-03-24T23:33:13.715Z,4.77
2019-03-24T23:35:47.291Z,5.93
2019-03-24T23:38:20.801Z,6.57
2019-03-24T23:40:54.316Z,9.67
2019-03-24T23:43:27.896Z,7.40
2019-03-24T23:46:01.385Z,6.53
2019-03-24T23:48:35.130Z,5.90
2019-03-24T23:51:08.554Z,5.97
2019-03-24T23:53:43.360Z,5.73
2019-03-24T23:56:16.880Z,7.57
2019-03-24T23:58:50.562Z,7.17
